createdAt,value
2022-10-15T00:02:16.961Z,12.34
2022-10-15T00:04:42.821Z,12.34
2022-10-15T00:07:08.803Z,12.39
2022-10-15T00:09:34.615Z,12.38
2022-10-15T00:12:00.361Z,12.37
2022-10-15T00:14:26.234Z,12.42
2022-10-15T00:16:52.447Z,12.24
2022-10-15T00:19:18.202Z,12.31
2022-10-15T00:21:43.977Z,12.35
2022-10-15T00:24:09.725Z,12.33
2022-10-15T00:26:35.546Z,12.28
2022-10-15T00:29:02.981Z,12.34
2022-10-15T00:31:30.365Z,12.32
2022-10-15T00:33:58.326Z,12.28
2022-10-15T00:36:26.963Z,12.33
2022-10-15T00:38:53.238Z,12.28
2022-10-15T00:41:33.316Z,12.23
2022-10-15T00:44:21.892Z,12.17
2022-10-15T00:46:51.284Z,12.14
2022-10-15T00:49:27.482Z,12.20
2022-10-15T00:51:56.356Z,12.17
2022-10-15T00:54:24.803Z,12.08
2022-10-15T00:56:50.790Z,12.10
2022-10-15T00:59:19.500Z,12.17
2022-10-15T01:01:45.899Z,12.10
2022-10-15T01:04:12.316Z,12.04
2022-10-15T01:06:39.181Z,12.09
2022-10-15T01:09:05.544Z,12.03
2022-10-15T01:11:40.331Z,12.05
2022-10-15T01:14:32.822Z,12.09
2022-10-15T01:17:20.250Z,12.16
2022-10-15T01:20:07.486Z,12.14
2022-10-15T01:22:39.254Z,12.18
2022-10-15T01:25:43.103Z,12.07
2022-10-15T01:28:33.529Z,12.12
2022-10-15T01:31:06.691Z,12.12
2022-10-15T01:33:44.647Z,12.03
2022-10-15T01:36:18.684Z,12.08
2022-10-15T01:38:57.372Z,12.08
2022-10-15T01:41:35.476Z,11.99
2022-10-15T01:44:08.061Z,11.96
2022-10-15T01:46:51.683Z,12.12
2022-10-15T01:49:21.351Z,12.01
2022-10-15T01:51:50.180Z,11.96
2022-10-15T01:54:18.497Z,11.97
2022-10-15T01:56:51.279Z,11.91
2022-10-15T01:59:21.096Z,11.92
2022-10-15T02:01:46.996Z,11.96
2022-10-15T02:04:21.527Z,11.99
2022-10-15T02:06:55.582Z,11.96
2022-10-15T02:09:24.121Z,11.95
2022-10-15T02:12:02.657Z,11.87
2022-10-15T02:14:35.936Z,11.91
2022-10-15T02:17:07.646Z,11.91
2022-10-15T02:19:39.268Z,12.00
2022-10-15T02:22:13.513Z,12.05
2022-10-15T02:24:53.069Z,12.07
2022-10-15T02:27:22.514Z,12.03
2022-10-15T02:29:50.529Z,12.07
2022-10-15T02:32:18.593Z,12.07
2022-10-15T02:34:46.266Z,12.10
2022-10-15T02:37:12.625Z,12.05
2022-10-15T02:39:38.644Z,12.03
2022-10-15T02:42:05.594Z,12.05
2022-10-15T02:44:31.675Z,12.12
2022-10-15T02:46:59.307Z,12.13
2022-10-15T02:49:25.173Z,12.15
2022-10-15T02:51:50.942Z,12.12
2022-10-15T02:54:16.902Z,12.08
2022-10-15T02:56:42.765Z,12.17
2022-10-15T02:59:08.645Z,12.02
2022-10-15T03:01:35.005Z,11.94
2022-10-15T03:04:01.555Z,12.03
2022-10-15T03:06:27.471Z,11.87
2022-10-15T03:08:53.224Z,11.93
2022-10-15T03:11:18.981Z,11.82
2022-10-15T03:13:44.873Z,11.74
2022-10-15T03:16:11.369Z,11.76
2022-10-15T03:18:40.501Z,11.76
2022-10-15T03:21:07.085Z,11.78
2022-10-15T03:25:59.527Z,11.87
2022-10-15T03:28:25.449Z,11.85
2022-10-15T03:30:51.275Z,11.89
2022-10-15T03:33:17.809Z,11.70
2022-10-15T03:35:44.805Z,11.78
2022-10-15T03:38:10.611Z,11.80
2022-10-15T03:40:36.418Z,11.73
2022-10-15T03:43:02.194Z,11.70
2022-10-15T03:45:28.034Z,11.74
2022-10-15T03:47:53.901Z,11.80
2022-10-15T03:50:19.715Z,11.92
2022-10-15T03:52:45.743Z,11.97
2022-10-15T03:55:12.182Z,11.96
2022-10-15T03:57:38.779Z,11.99
2022-10-15T04:00:06.833Z,11.89
2022-10-15T04:02:32.825Z,11.91
2022-10-15T04:04:59.311Z,11.83
2022-10-15T04:07:25.356Z,11.85
2022-10-15T04:09:51.139Z,11.87
2022-10-15T04:12:17.831Z,11.82
2022-10-15T04:14:44.206Z,11.81
2022-10-15T04:17:10.112Z,11.92
2022-10-15T04:19:35.921Z,11.81
2022-10-15T04:22:02.146Z,11.84
2022-10-15T04:24:27.904Z,11.76
2022-10-15T04:26:54.342Z,11.81
2022-10-15T04:29:20.150Z,11.87
2022-10-15T04:31:45.908Z,11.89
2022-10-15T04:34:11.707Z,11.88
2022-10-15T04:36:37.842Z,11.86
2022-10-15T04:39:04.895Z,11.91
2022-10-15T04:41:30.800Z,11.96
2022-10-15T04:43:57.694Z,11.97
2022-10-15T04:46:23.670Z,11.98
2022-10-15T04:48:49.743Z,11.98
2022-10-15T04:51:20.520Z,11.96
2022-10-15T04:53:46.640Z,11.82
2022-10-15T04:56:17.043Z,11.86
2022-10-15T04:58:45.281Z,11.93
2022-10-15T05:01:13.844Z,11.93
2022-10-15T05:03:44.866Z,11.99
2022-10-15T05:06:21.523Z,11.91
2022-10-15T05:08:48.559Z,11.89
2022-10-15T05:11:22.894Z,11.84
2022-10-15T05:13:49.811Z,11.87
2022-10-15T05:16:18.083Z,11.84
2022-10-15T05:18:46.182Z,11.90
2022-10-15T05:21:13.219Z,11.99
2022-10-15T05:23:39.610Z,11.93
2022-10-15T05:26:08.301Z,11.95
2022-10-15T05:28:34.558Z,11.95
2022-10-15T05:31:08.613Z,11.87
2022-10-15T05:33:34.983Z,11.94
2022-10-15T05:36:18.188Z,11.92
2022-10-15T05:38:49.438Z,11.69
2022-10-15T05:41:15.525Z,11.71
2022-10-15T05:43:41.720Z,11.68
2022-10-15T05:46:08.214Z,11.60
2022-10-15T05:48:34.333Z,11.67
2022-10-15T05:51:05.220Z,11.64
2022-10-15T05:53:31.315Z,11.62
2022-10-15T05:56:00.664Z,11.56
2022-10-15T05:58:32.028Z,11.58
2022-10-15T06:01:03.420Z,11.62
2022-10-15T06:03:29.682Z,11.65
2022-10-15T06:05:55.730Z,11.46
2022-10-15T06:08:21.903Z,11.56
2022-10-15T06:10:48.308Z,11.56
2022-10-15T06:13:15.077Z,11.47
2022-10-15T06:15:42.686Z,11.48
2022-10-15T06:18:09.466Z,11.58
2022-10-15T06:20:36.506Z,11.52
2022-10-15T06:23:04.073Z,11.51
2022-10-15T06:25:30.280Z,11.47
2022-10-15T06:28:00.638Z,11.44
2022-10-15T06:30:26.459Z,11.48
2022-10-15T06:32:53.223Z,11.48
2022-10-15T06:35:21.020Z,11.56
2022-10-15T06:37:47.538Z,11.42
2022-10-15T06:40:13.869Z,11.58
2022-10-15T06:42:39.989Z,11.52
2022-10-15T06:45:07.004Z,11.45
2022-10-15T06:47:32.925Z,11.51
2022-10-15T06:49:58.776Z,11.59
2022-10-15T06:52:24.566Z,11.65
2022-10-15T06:54:50.807Z,11.61
2022-10-15T06:57:16.628Z,11.59
2022-10-15T06:59:42.361Z,11.75
2022-10-15T07:02:13.313Z,11.85
2022-10-15T07:04:39.433Z,11.80
2022-10-15T07:07:05.273Z,11.79
2022-10-15T07:09:31.146Z,12.00
2022-10-15T07:11:57.043Z,11.84
2022-10-15T07:14:22.804Z,11.92
2022-10-15T07:16:48.654Z,11.97
2022-10-15T07:19:14.508Z,11.92
2022-10-15T07:21:40.314Z,12.03
2022-10-15T07:24:06.192Z,11.96
2022-10-15T07:26:31.946Z,12.07
2022-10-15T07:28:57.739Z,12.02
2022-10-15T07:31:23.725Z,11.99
2022-10-15T07:33:49.584Z,12.00
2022-10-15T07:36:15.522Z,12.09
2022-10-15T07:38:41.528Z,12.08
2022-10-15T07:41:09.776Z,12.09
2022-10-15T07:43:36.394Z,12.11
2022-10-15T07:46:03.225Z,12.05
2022-10-15T07:48:30.050Z,12.02
2022-10-15T07:50:57.829Z,12.05
2022-10-15T07:53:24.286Z,11.96
2022-10-15T07:55:50.202Z,11.87
2022-10-15T07:58:16.218Z,12.00
2022-10-15T08:00:42.079Z,12.01
2022-10-15T08:03:08.236Z,11.98
2022-10-15T08:05:34.211Z,12.02
2022-10-15T08:08:00.254Z,11.99
2022-10-15T08:10:26.833Z,11.97
2022-10-15T08:12:52.755Z,12.03
2022-10-15T08:15:19.244Z,11.89
2022-10-15T08:17:45.463Z,11.91
2022-10-15T08:20:11.759Z,11.99
2022-10-15T08:22:37.545Z,12.00
2022-10-15T08:25:03.991Z,12.15
2022-10-15T08:27:30.114Z,12.13
2022-10-15T08:29:55.931Z,12.16
2022-10-15T08:32:22.137Z,12.28
2022-10-15T08:34:48.176Z,12.38
2022-10-15T08:39:40.851Z,12.59
2022-10-15T08:42:17.000Z,12.57
2022-10-15T08:44:49.338Z,12.66
2022-10-15T08:47:39.634Z,12.59
2022-10-15T08:50:35.614Z,12.41
2022-10-15T08:53:01.861Z,12.44
2022-10-15T08:55:34.964Z,12.48
2022-10-15T08:58:23.408Z,12.51
2022-10-15T09:00:52.601Z,12.74
2022-10-15T09:03:37.234Z,12.78
2022-10-15T09:06:25.042Z,13.04
2022-10-15T09:08:53.492Z,13.03
2022-10-15T09:11:35.747Z,12.97
2022-10-15T09:14:05.300Z,12.85
2022-10-15T09:16:38.359Z,12.96
2022-10-15T09:19:12.620Z,13.21
2022-10-15T09:21:38.585Z,13.31
2022-10-15T09:24:04.872Z,13.42
2022-10-15T09:26:51.088Z,13.70
2022-10-15T09:29:23.393Z,13.98
2022-10-15T09:32:17.151Z,13.98
2022-10-15T09:34:46.577Z,14.06
2022-10-15T09:37:38.126Z,14.34
2022-10-15T09:40:20.971Z,14.32
2022-10-15T09:42:50.345Z,14.09
2022-10-15T09:45:16.733Z,14.70
2022-10-15T09:47:43.555Z,15.04
2022-10-15T09:50:14.214Z,15.42
2022-10-15T09:52:59.401Z,15.14
2022-10-15T09:55:40.383Z,14.92
2022-10-15T09:58:17.363Z,14.75
2022-10-15T10:00:56.070Z,14.44
2022-10-15T10:03:24.582Z,15.38
2022-10-15T10:05:58.280Z,16.12
2022-10-15T10:08:28.793Z,16.48
2022-10-15T10:10:56.943Z,16.62
2022-10-15T10:13:37.300Z,16.03
2022-10-15T10:16:09.347Z,15.76
2022-10-15T10:18:37.017Z,15.01
2022-10-15T10:21:06.874Z,14.49
2022-10-15T10:23:38.789Z,14.18
2022-10-15T10:26:10.551Z,14.32
2022-10-15T10:28:50.685Z,14.56
2022-10-15T10:31:17.093Z,14.64
2022-10-15T10:33:51.650Z,14.54
2022-10-15T10:36:26.285Z,14.46
2022-10-15T10:39:26.981Z,14.45
2022-10-15T10:41:57.036Z,14.44
2022-10-15T10:44:29.808Z,14.31
2022-10-15T10:47:03.894Z,14.34
2022-10-15T10:49:32.279Z,14.39
2022-10-15T10:51:58.054Z,14.12
2022-10-15T10:54:25.240Z,14.26
2022-10-15T10:56:53.549Z,14.25
2022-10-15T10:59:27.525Z,13.97
2022-10-15T11:01:55.930Z,13.92
2022-10-15T11:04:29.554Z,13.95
2022-10-15T11:07:13.880Z,14.07
2022-10-15T11:09:53.820Z,13.98
2022-10-15T11:12:41.798Z,13.97
2022-10-15T11:15:25.240Z,13.94
2022-10-15T11:18:32.776Z,13.82
2022-10-15T11:21:15.029Z,13.69
2022-10-15T11:24:10.931Z,13.62
2022-10-15T11:27:19.349Z,13.73
2022-10-15T11:30:09.976Z,13.71
2022-10-15T11:33:12.664Z,13.77
2022-10-15T11:36:21.751Z,13.76
2022-10-15T11:39:15.051Z,13.67
2022-10-15T11:42:06.639Z,13.69
2022-10-15T11:44:50.681Z,13.77
2022-10-15T11:47:44.837Z,13.71
2022-10-15T11:50:16.421Z,13.73
2022-10-15T11:53:09.003Z,13.76
2022-10-15T11:55:41.175Z,13.75
2022-10-15T11:58:27.723Z,13.85
2022-10-15T12:00:59.511Z,13.93
2022-10-15T12:03:28.395Z,14.16
2022-10-15T12:06:00.108Z,14.42
2022-10-15T12:08:38.495Z,14.58
2022-10-15T12:11:38.882Z,14.73
2022-10-15T12:14:18.556Z,15.07
2022-10-15T12:17:24.536Z,14.91
2022-10-15T12:19:56.106Z,14.67
2022-10-15T12:22:39.199Z,14.53
2022-10-15T12:25:26.178Z,14.58
2022-10-15T12:28:14.004Z,14.55
2022-10-15T12:30:41.793Z,14.45
2022-10-15T12:33:32.331Z,14.28
2022-10-15T12:36:19.326Z,14.15
2022-10-15T12:39:00.844Z,14.25
2022-10-15T12:41:44.944Z,14.19
2022-10-15T12:44:27.953Z,14.15
2022-10-15T12:46:54.026Z,14.11
2022-10-15T12:49:26.095Z,13.98
2022-10-15T12:51:56.448Z,14.06
2022-10-15T12:54:41.545Z,14.06
2022-10-15T12:57:35.487Z,14.01
2022-10-15T13:00:22.052Z,14.16
2022-10-15T13:02:48.982Z,14.22
2022-10-15T13:05:30.217Z,14.12
2022-10-15T13:07:59.226Z,14.03
2022-10-15T13:10:33.377Z,14.01
2022-10-15T13:13:04.193Z,13.99
2022-10-15T13:15:31.840Z,13.99
2022-10-15T13:18:03.899Z,14.04
2022-10-15T13:20:56.053Z,14.02
2022-10-15T13:23:31.728Z,14.18
2022-10-15T13:26:16.998Z,14.25
2022-10-15T13:28:43.922Z,14.29
2022-10-15T13:31:22.606Z,14.27
2022-10-15T13:33:57.918Z,14.18
2022-10-15T13:36:27.044Z,14.38
2022-10-15T13:39:14.814Z,14.35
2022-10-15T13:41:40.586Z,14.37
2022-10-15T13:44:17.468Z,14.39
2022-10-15T13:46:43.277Z,14.52
2022-10-15T13:49:12.454Z,14.56
2022-10-15T13:51:42.810Z,14.53
2022-10-15T13:54:16.829Z,14.58
2022-10-15T13:56:50.342Z,14.57
2022-10-15T13:59:18.616Z,14.56
2022-10-15T14:01:47.562Z,14.61
2022-10-15T14:04:16.542Z,14.64
2022-10-15T14:06:56.960Z,14.64
2022-10-15T14:09:28.349Z,14.73
2022-10-15T14:11:59.077Z,14.67
2022-10-15T14:14:30.175Z,14.65
2022-10-15T14:16:57.640Z,14.71
2022-10-15T14:19:29.180Z,14.78
2022-10-15T14:21:57.062Z,14.86
2022-10-15T14:24:29.856Z,14.94
2022-10-15T14:27:01.732Z,14.93
2022-10-15T14:29:34.952Z,15.05
2022-10-15T14:32:01.648Z,15.03
2022-10-15T14:34:30.690Z,15.03
2022-10-15T14:36:56.668Z,15.03
2022-10-15T14:39:33.785Z,15.08
2022-10-15T14:42:05.307Z,15.03
2022-10-15T14:44:46.003Z,15.06
2022-10-15T14:47:19.864Z,15.04
2022-10-15T14:49:46.067Z,15.11
2022-10-15T14:52:16.553Z,15.03
2022-10-15T14:55:08.222Z,15.06
2022-10-15T14:57:39.706Z,15.06
2022-10-15T15:00:20.526Z,15.07
2022-10-15T15:02:46.897Z,14.98
2022-10-15T15:05:12.850Z,14.87
2022-10-15T15:07:39.985Z,14.98
2022-10-15T15:10:08.216Z,15.04
2022-10-15T15:12:35.446Z,14.92
2022-10-15T15:15:01.515Z,14.98
2022-10-15T15:17:28.924Z,14.97
2022-10-15T15:19:56.573Z,14.94
2022-10-15T15:22:33.636Z,14.87
2022-10-15T15:25:02.786Z,14.93
2022-10-15T15:27:31.090Z,14.93
2022-10-15T15:29:57.274Z,14.77
2022-10-15T15:32:24.069Z,14.76
2022-10-15T15:34:52.303Z,14.83
2022-10-15T15:37:23.042Z,14.83
2022-10-15T15:39:49.718Z,14.79
2022-10-15T15:42:23.930Z,14.83
2022-10-15T15:44:50.145Z,14.74
2022-10-15T15:47:16.228Z,14.71
2022-10-15T15:49:42.244Z,14.84
2022-10-15T15:52:16.268Z,14.81
2022-10-15T15:54:42.688Z,14.74
2022-10-15T15:57:08.858Z,14.70
2022-10-15T15:59:34.623Z,14.77
2022-10-15T16:02:00.954Z,14.75
2022-10-15T16:04:26.831Z,14.84
2022-10-15T16:06:52.662Z,14.82
2022-10-15T16:09:19.574Z,14.76
2022-10-15T16:11:45.690Z,14.66
2022-10-15T16:14:11.618Z,14.69
2022-10-15T16:16:37.650Z,14.70
2022-10-15T16:19:04.114Z,14.61
2022-10-15T16:21:30.811Z,14.60
2022-10-15T16:23:56.702Z,14.61
2022-10-15T16:26:22.996Z,14.67
2022-10-15T16:28:49.187Z,14.59
2022-10-15T16:31:21.468Z,14.66
2022-10-15T16:33:47.997Z,14.60
2022-10-15T16:36:15.188Z,14.61
2022-10-15T16:38:42.924Z,14.63
2022-10-15T16:41:10.161Z,14.56
2022-10-15T16:43:36.523Z,14.59
2022-10-15T16:46:02.701Z,14.45
2022-10-15T16:48:30.226Z,14.28
2022-10-15T16:51:01.519Z,14.16
2022-10-15T16:53:28.377Z,14.15
2022-10-15T16:56:08.689Z,14.12
2022-10-15T16:58:35.285Z,14.04
2022-10-15T17:01:05.880Z,13.95
2022-10-15T17:03:34.073Z,14.03
2022-10-15T17:06:04.692Z,13.91
2022-10-15T17:08:39.740Z,14.02
2022-10-15T17:11:10.927Z,13.93
2022-10-15T17:13:37.039Z,13.92
2022-10-15T17:16:12.257Z,13.94
2022-10-15T17:18:39.311Z,14.02
2022-10-15T17:21:08.555Z,13.99
2022-10-15T17:23:34.498Z,13.86
2022-10-15T17:26:09.028Z,14.01
2022-10-15T17:28:35.099Z,14.05
2022-10-15T17:31:03.011Z,13.99
2022-10-15T17:33:29.143Z,13.95
2022-10-15T17:35:55.021Z,13.96
2022-10-15T17:38:22.602Z,13.89
2022-10-15T17:40:48.635Z,13.83
2022-10-15T17:43:14.536Z,13.86
2022-10-15T17:45:40.324Z,13.95
2022-10-15T17:48:06.389Z,13.84
2022-10-15T17:50:32.240Z,13.80
2022-10-15T17:53:00.529Z,13.83
2022-10-15T17:55:27.579Z,13.87
2022-10-15T17:57:53.418Z,13.86
2022-10-15T18:00:19.346Z,13.90
2022-10-15T18:02:48.193Z,13.85
2022-10-15T18:07:45.231Z,13.87
2022-10-15T18:10:11.977Z,13.78
2022-10-15T18:12:38.071Z,13.69
2022-10-15T18:15:04.322Z,13.59
2022-10-15T18:17:30.326Z,13.64
2022-10-15T18:19:56.304Z,13.68
2022-10-15T18:22:22.150Z,13.78
2022-10-15T18:24:48.075Z,13.67
2022-10-15T18:27:14.090Z,13.57
2022-10-15T18:29:39.990Z,13.50
2022-10-15T18:32:05.955Z,13.55
2022-10-15T18:34:32.742Z,13.50
2022-10-15T18:36:58.980Z,13.55
2022-10-15T18:39:26.132Z,13.47
2022-10-15T18:41:51.930Z,13.38
2022-10-15T18:44:20.659Z,13.45
2022-10-15T18:46:46.704Z,13.38
2022-10-15T18:49:15.120Z,13.32
2022-10-15T18:51:41.319Z,13.17
2022-10-15T18:54:08.525Z,13.21
2022-10-15T18:56:34.448Z,13.29
2022-10-15T18:59:00.296Z,13.27
2022-10-15T19:01:27.886Z,13.16
2022-10-15T19:03:55.498Z,13.17
2022-10-15T19:06:27.537Z,13.13
2022-10-15T19:08:59.244Z,13.15
2022-10-15T19:11:26.489Z,12.97
2022-10-15T19:13:52.610Z,13.07
2022-10-15T19:16:18.548Z,13.06
2022-10-15T19:18:44.675Z,12.97
2022-10-15T19:21:11.735Z,12.81
2022-10-15T19:23:37.725Z,12.80
2022-10-15T19:26:11.684Z,12.74
2022-10-15T19:28:38.227Z,12.76
2022-10-15T19:31:06.837Z,12.76
2022-10-15T19:33:33.906Z,12.80
2022-10-15T19:36:01.095Z,12.85
2022-10-15T19:38:27.448Z,12.84
2022-10-15T19:40:54.113Z,12.92
2022-10-15T19:43:22.243Z,12.81
2022-10-15T19:45:48.721Z,12.69
2022-10-15T19:48:18.310Z,12.61
2022-10-15T19:50:46.420Z,12.52
2022-10-15T19:53:15.578Z,12.63
2022-10-15T19:55:41.958Z,12.53
2022-10-15T19:58:07.909Z,12.59
2022-10-15T20:00:34.165Z,12.67
2022-10-15T20:03:00.583Z,12.62
2022-10-15T20:05:26.638Z,12.49
2022-10-15T20:07:52.488Z,12.53
2022-10-15T20:10:20.524Z,12.54
2022-10-15T20:12:49.443Z,12.55
2022-10-15T20:15:15.456Z,12.42
2022-10-15T20:17:41.372Z,12.49
2022-10-15T20:20:07.313Z,12.46
2022-10-15T20:22:33.246Z,12.46
2022-10-15T20:24:59.010Z,12.39
2022-10-15T20:27:25.075Z,12.33
2022-10-15T20:29:50.933Z,12.22
2022-10-15T20:32:30.284Z,12.23
2022-10-15T20:34:59.927Z,12.26
2022-10-15T20:37:25.731Z,12.29
2022-10-15T20:39:51.635Z,12.26
2022-10-15T20:42:17.472Z,12.32
2022-10-15T20:44:43.315Z,12.31
2022-10-15T20:47:12.961Z,12.35
2022-10-15T20:49:42.914Z,12.41
2022-10-15T20:52:09.064Z,12.37
2022-10-15T20:54:35.134Z,12.37
2022-10-15T20:57:01.699Z,12.43
2022-10-15T20:59:30.169Z,12.47
2022-10-15T21:01:56.527Z,12.53
2022-10-15T21:04:22.412Z,12.42
2022-10-15T21:06:48.218Z,12.45
2022-10-15T21:09:14.331Z,12.39
2022-10-15T21:11:42.060Z,12.40
2022-10-15T21:14:08.996Z,12.33
2022-10-15T21:16:34.785Z,12.28
2022-10-15T21:19:00.834Z,12.35
2022-10-15T21:21:27.018Z,12.37
2022-10-15T21:23:53.222Z,12.43
2022-10-15T21:26:20.053Z,12.39
2022-10-15T21:28:45.958Z,12.37
2022-10-15T21:31:16.641Z,12.37
2022-10-15T21:33:42.962Z,12.44
2022-10-15T21:36:23.989Z,12.49
2022-10-15T21:39:05.594Z,12.57
2022-10-15T21:41:33.494Z,12.52
2022-10-15T21:44:00.783Z,12.48
2022-10-15T21:46:27.473Z,12.46
2022-10-15T21:48:54.194Z,12.42
2022-10-15T21:51:23.312Z,12.50
2022-10-15T21:53:49.423Z,12.43
2022-10-15T21:56:16.058Z,12.54
2022-10-15T21:58:42.317Z,12.35
2022-10-15T22:01:31.742Z,12.38
2022-10-15T22:04:00.495Z,12.34
2022-10-15T22:06:26.742Z,12.35
2022-10-15T22:08:52.692Z,12.44
2022-10-15T22:14:02.764Z,12.52
2022-10-15T22:16:31.700Z,12.54
2022-10-15T22:18:57.908Z,12.52
2022-10-15T22:21:29.073Z,12.47
2022-10-15T22:23:57.892Z,12.45
2022-10-15T22:26:27.128Z,12.55
2022-10-15T22:28:55.069Z,12.54
2022-10-15T22:31:21.623Z,12.53
2022-10-15T22:33:48.199Z,12.55
2022-10-15T22:36:19.919Z,12.47
2022-10-15T22:38:48.198Z,12.47
2022-10-15T22:41:15.084Z,12.56
2022-10-15T22:43:41.571Z,12.60
2022-10-15T22:46:07.361Z,12.65
2022-10-15T22:48:35.363Z,12.56
2022-10-15T22:51:02.474Z,12.45
2022-10-15T22:53:28.624Z,12.49
2022-10-15T22:55:59.291Z,12.46
2022-10-15T22:58:25.963Z,12.43
2022-10-15T23:00:52.656Z,12.43
2022-10-15T23:03:19.634Z,12.35
2022-10-15T23:05:53.280Z,12.30
2022-10-15T23:08:20.082Z,12.31
2022-10-15T23:10:45.936Z,12.33
2022-10-15T23:13:11.879Z,12.32
2022-10-15T23:15:37.765Z,12.28
2022-10-15T23:18:03.674Z,12.29
2022-10-15T23:20:32.480Z,12.37
2022-10-15T23:23:00.793Z,12.34
2022-10-15T23:25:26.580Z,12.35
2022-10-15T23:27:52.635Z,12.25
2022-10-15T23:30:24.756Z,12.31
2022-10-15T23:32:50.965Z,12.15
2022-10-15T23:35:16.874Z,12.13
2022-10-15T23:37:42.705Z,12.20
2022-10-15T23:40:09.352Z,12.12
2022-10-15T23:42:35.087Z,12.16
2022-10-15T23:45:00.889Z,12.20
2022-10-15T23:47:27.096Z,12.11
2022-10-15T23:49:53.164Z,12.16
2022-10-15T23:52:18.950Z,12.16
2022-10-15T23:54:44.732Z,12.14
2022-10-15T23:57:10.545Z,12.19
2022-10-15T23:59:36.270Z,12.20
